createdAt,value
2022-08-27T00:00:38.279Z,16.30
2022-08-27T00:03:26.285Z,13.70
2022-08-27T00:06:19.968Z,13.00
2022-08-27T00:09:07.759Z,13.50
2022-08-27T00:11:57.700Z,12.30
2022-08-27T00:14:45.711Z,13.20
2022-08-27T00:17:35.663Z,12.10
2022-08-27T00:20:26.849Z,19.40
2022-08-27T00:23:14.884Z,11.30
2022-08-27T00:26:05.934Z,13.60
2022-08-27T00:28:53.909Z,14.50
2022-08-27T00:31:41.917Z,14.60
2022-08-27T00:34:31.753Z,14.40
2022-08-27T00:37:20.598Z,12.80
2022-08-27T00:40:13.169Z,12.20
2022-08-27T00:43:04.327Z,16.20
2022-08-27T00:45:58.727Z,13.60
2022-08-27T00:48:48.021Z,12.00
2022-08-27T00:51:37.410Z,10.80
2022-08-27T00:54:28.270Z,13.50
2022-08-27T00:57:17.812Z,11.20
2022-08-27T01:00:11.525Z,13.10
2022-08-27T01:02:59.436Z,14.20
2022-08-27T01:05:49.602Z,11.80
2022-08-27T01:08:44.843Z,14.80
2022-08-27T01:11:33.515Z,11.70
2022-08-27T01:14:22.135Z,13.80
2022-08-27T01:17:11.811Z,12.10
2022-08-27T01:20:08.757Z,14.00
2022-08-27T01:23:15.628Z,13.60
2022-08-27T01:26:07.202Z,13.30
2022-08-27T01:28:55.186Z,14.90
2022-08-27T01:31:43.434Z,11.60
2022-08-27T01:34:31.249Z,12.50
2022-08-27T01:37:23.779Z,13.40
2022-08-27T01:40:13.963Z,13.70
2022-08-27T01:43:05.940Z,13.70
2022-08-27T01:45:54.113Z,13.20
2022-08-27T01:48:42.179Z,16.70
2022-08-27T01:51:30.539Z,13.00
2022-08-27T01:54:18.657Z,13.00
2022-08-27T01:57:07.091Z,15.70
2022-08-27T01:59:58.239Z,13.00
2022-08-27T02:02:48.233Z,14.50
2022-08-27T02:05:39.347Z,16.80
2022-08-27T02:08:33.508Z,15.00
2022-08-27T02:11:21.695Z,15.90
2022-08-27T02:14:13.434Z,13.90
2022-08-27T02:17:02.378Z,12.70
2022-08-27T02:19:50.579Z,17.50
2022-08-27T02:22:39.083Z,14.10
2022-08-27T02:25:28.960Z,14.20
2022-08-27T02:28:18.731Z,12.20
2022-08-27T02:31:07.663Z,14.50
2022-08-27T02:33:58.229Z,11.80
2022-08-27T02:36:47.720Z,14.90
2022-08-27T02:39:35.747Z,13.90
2022-08-27T02:42:25.791Z,15.10
2022-08-27T02:45:15.275Z,14.30
2022-08-27T02:48:04.221Z,14.40
2022-08-27T02:50:52.405Z,13.10
2022-08-27T02:53:40.385Z,15.40
2022-08-27T02:56:28.550Z,13.30
2022-08-27T02:59:17.030Z,16.00
2022-08-27T03:02:05.314Z,13.00
2022-08-27T03:04:53.482Z,15.20
2022-08-27T03:07:42.111Z,17.20
2022-08-27T03:10:30.136Z,13.80
2022-08-27T03:13:19.090Z,13.60
2022-08-27T03:16:08.637Z,13.90
2022-08-27T03:18:56.630Z,12.00
2022-08-27T03:21:44.826Z,13.00
2022-08-27T03:24:42.576Z,16.40
2022-08-27T03:27:30.477Z,12.90
2022-08-27T03:30:24.149Z,18.10
2022-08-27T03:33:12.825Z,11.80
2022-08-27T03:36:00.748Z,14.30
2022-08-27T03:38:49.146Z,15.30
2022-08-27T03:41:47.217Z,14.00
2022-08-27T03:44:43.470Z,12.60
2022-08-27T03:47:32.613Z,15.20
2022-08-27T03:50:20.657Z,15.50
2022-08-27T03:53:09.774Z,12.70
2022-08-27T03:55:58.015Z,12.40
2022-08-27T03:58:46.398Z,13.20
2022-08-27T04:01:34.718Z,14.20
2022-08-27T04:04:24.407Z,15.10
2022-08-27T04:07:11.971Z,16.40
2022-08-27T04:09:59.992Z,13.80
2022-08-27T04:12:47.966Z,13.60
2022-08-27T04:15:40.598Z,16.10
2022-08-27T04:18:29.121Z,13.20
2022-08-27T04:21:17.500Z,14.60
2022-08-27T04:24:05.961Z,12.70
2022-08-27T04:26:54.403Z,14.30
2022-08-27T04:29:43.057Z,15.00
2022-08-27T04:32:31.304Z,16.70
2022-08-27T04:35:22.435Z,18.70
2022-08-27T04:38:10.497Z,13.40
2022-08-27T04:41:17.214Z,15.40
2022-08-27T04:44:11.590Z,13.90
2022-08-27T04:47:03.413Z,14.70
2022-08-27T04:49:51.236Z,12.60
2022-08-27T04:52:40.898Z,17.10
2022-08-27T04:55:29.255Z,16.80
2022-08-27T04:58:20.955Z,14.40
2022-08-27T05:01:09.720Z,17.00
2022-08-27T05:03:58.878Z,14.80
2022-08-27T05:06:46.806Z,15.20
2022-08-27T05:09:35.401Z,14.20
2022-08-27T05:12:24.018Z,14.60
2022-08-27T05:15:12.146Z,17.10
2022-08-27T05:18:01.032Z,15.10
2022-08-27T05:20:50.209Z,14.70
2022-08-27T05:23:37.920Z,15.10
2022-08-27T05:26:29.103Z,13.70
2022-08-27T05:29:17.655Z,16.10
2022-08-27T05:32:05.877Z,13.50
2022-08-27T05:34:53.606Z,13.10
2022-08-27T05:37:41.621Z,14.00
2022-08-27T05:40:29.698Z,12.50
2022-08-27T05:43:19.286Z,12.80
2022-08-27T05:46:12.193Z,15.80
2022-08-27T05:49:01.706Z,13.70
2022-08-27T05:51:49.822Z,17.20
2022-08-27T05:54:39.910Z,16.50
2022-08-27T05:57:27.874Z,15.60
2022-08-27T06:00:34.847Z,16.30
2022-08-27T06:03:22.946Z,17.00
2022-08-27T06:06:11.638Z,17.50
2022-08-27T06:08:59.272Z,15.90
2022-08-27T06:11:48.350Z,16.00
2022-08-27T06:14:38.188Z,16.90
2022-08-27T06:17:26.497Z,13.10
2022-08-27T06:20:14.687Z,17.40
2022-08-27T06:23:02.266Z,12.60
2022-08-27T06:25:50.121Z,14.60
2022-08-27T06:28:42.296Z,16.30
2022-08-27T06:31:31.400Z,15.80
2022-08-27T06:34:19.773Z,12.50
2022-08-27T06:37:08.236Z,14.80
2022-08-27T06:39:56.203Z,12.30
2022-08-27T06:42:44.629Z,10.10
2022-08-27T06:45:33.031Z,11.20
2022-08-27T06:48:20.946Z,11.20
2022-08-27T06:51:19.210Z,13.90
2022-08-27T06:54:12.425Z,14.20
2022-08-27T06:57:00.729Z,10.20
2022-08-27T06:59:48.660Z,10.60
2022-08-27T07:02:36.663Z,10.60
2022-08-27T07:05:26.105Z,9.60
2022-08-27T07:08:14.034Z,10.30
2022-08-27T07:11:01.807Z,13.10
2022-08-27T07:13:51.083Z,9.90
2022-08-27T07:16:41.046Z,10.00
2022-08-27T07:19:30.569Z,15.80
2022-08-27T07:22:18.657Z,11.50
2022-08-27T07:25:13.059Z,12.10
2022-08-27T07:28:01.265Z,12.00
2022-08-27T07:30:49.747Z,7.80
2022-08-27T07:33:40.048Z,10.00
2022-08-27T07:36:35.209Z,14.60
2022-08-27T07:39:24.143Z,10.40
2022-08-27T07:42:30.476Z,11.00
2022-08-27T07:45:18.702Z,11.30
2022-08-27T07:48:06.755Z,10.20
2022-08-27T07:50:55.690Z,9.40
2022-08-27T07:53:45.385Z,10.20
2022-08-27T07:56:33.022Z,9.20
2022-08-27T07:59:20.943Z,8.90
2022-08-27T08:02:13.030Z,7.80
2022-08-27T08:05:01.560Z,10.00
2022-08-27T08:07:50.901Z,8.80
2022-08-27T08:10:40.778Z,9.40
2022-08-27T08:13:28.887Z,9.60
2022-08-27T08:16:17.257Z,13.30
2022-08-27T08:19:05.280Z,9.00
2022-08-27T08:21:59.429Z,10.80
2022-08-27T08:24:48.728Z,10.40
2022-08-27T08:27:38.478Z,10.70
2022-08-27T08:30:27.754Z,9.70
2022-08-27T08:33:19.313Z,10.40
2022-08-27T08:36:13.768Z,7.50
2022-08-27T08:39:01.358Z,9.10
2022-08-27T08:41:57.485Z,9.40
2022-08-27T08:44:53.825Z,9.30
2022-08-27T08:47:53.721Z,8.30
2022-08-27T08:51:06.117Z,8.80
2022-08-27T08:54:02.078Z,10.80
2022-08-27T08:57:08.612Z,8.50
2022-08-27T09:00:13.509Z,11.40
2022-08-27T09:03:01.322Z,12.10
2022-08-27T09:06:07.738Z,12.50
2022-08-27T09:08:56.467Z,9.80
2022-08-27T09:12:01.081Z,11.00
2022-08-27T09:15:01.829Z,8.80
2022-08-27T09:17:50.907Z,10.80
2022-08-27T09:20:40.899Z,10.20
2022-08-27T09:23:34.851Z,11.50
2022-08-27T09:26:27.485Z,8.90
2022-08-27T09:29:21.490Z,8.60
2022-08-27T09:32:10.146Z,11.10
2022-08-27T09:35:03.300Z,12.50
2022-08-27T09:37:54.870Z,12.80
2022-08-27T09:40:49.507Z,10.30
2022-08-27T09:43:39.507Z,12.40
2022-08-27T09:46:27.555Z,11.50
2022-08-27T09:49:17.720Z,12.20
2022-08-27T09:52:05.498Z,11.40
2022-08-27T09:54:55.970Z,10.00
2022-08-27T09:57:43.823Z,11.30
2022-08-27T10:00:41.357Z,12.90
2022-08-27T10:03:33.383Z,11.40
2022-08-27T10:06:30.792Z,11.80
2022-08-27T10:09:42.768Z,13.00
2022-08-27T10:12:44.978Z,10.70
2022-08-27T10:16:46.740Z,11.30
2022-08-27T10:20:10.319Z,12.70
2022-08-27T10:23:29.226Z,13.40
2022-08-27T10:26:39.840Z,10.60
2022-08-27T10:30:14.163Z,12.90
2022-08-27T10:33:39.932Z,12.50
2022-08-27T10:37:07.562Z,13.60
2022-08-27T10:40:11.301Z,12.50
2022-08-27T10:43:29.489Z,12.90
2022-08-27T10:47:14.521Z,13.80
2022-08-27T10:50:34.572Z,14.00
2022-08-27T10:53:50.086Z,11.90
2022-08-27T10:57:14.452Z,15.90
2022-08-27T11:00:16.080Z,17.60
2022-08-27T11:03:42.185Z,12.80
2022-08-27T11:07:03.028Z,13.50
2022-08-27T11:09:58.844Z,14.50
2022-08-27T11:12:53.201Z,12.70
2022-08-27T11:15:46.787Z,14.80
2022-08-27T11:18:50.074Z,15.70
2022-08-27T11:22:12.648Z,15.10
2022-08-27T11:25:27.192Z,12.40
2022-08-27T11:28:15.978Z,17.70
2022-08-27T11:31:38.496Z,12.90
2022-08-27T11:34:52.311Z,14.70
2022-08-27T11:37:43.037Z,13.70
2022-08-27T11:40:49.483Z,11.80
2022-08-27T11:43:38.216Z,13.10
2022-08-27T11:46:39.938Z,15.80
2022-08-27T11:49:43.279Z,11.50
2022-08-27T11:52:53.946Z,12.20
2022-08-27T11:55:42.025Z,16.60
2022-08-27T11:58:33.016Z,11.00
2022-08-27T12:01:31.944Z,11.70
2022-08-27T12:04:32.415Z,12.40
2022-08-27T12:07:22.026Z,14.20
2022-08-27T12:10:23.053Z,10.70
2022-08-27T12:13:48.910Z,14.50
2022-08-27T12:17:02.183Z,13.20
2022-08-27T12:20:13.510Z,13.00
2022-08-27T12:23:39.804Z,12.60
2022-08-27T12:26:35.566Z,12.70
2022-08-27T12:29:43.982Z,14.40
2022-08-27T12:32:45.185Z,12.30
2022-08-27T12:35:46.767Z,14.60
2022-08-27T12:38:58.316Z,14.60
2022-08-27T12:41:50.502Z,12.10
2022-08-27T12:44:38.581Z,15.00
2022-08-27T12:47:27.209Z,14.20
2022-08-27T12:50:24.219Z,14.30
2022-08-27T12:53:22.374Z,13.10
2022-08-27T12:56:46.358Z,15.30
2022-08-27T12:59:46.425Z,13.30
2022-08-27T13:03:03.556Z,13.30
2022-08-27T13:05:56.926Z,14.90
2022-08-27T13:08:44.877Z,13.80
2022-08-27T13:11:57.014Z,13.40
2022-08-27T13:14:44.767Z,15.00
2022-08-27T13:17:41.825Z,15.60
2022-08-27T13:20:31.518Z,11.00
2022-08-27T13:23:24.178Z,14.60
2022-08-27T13:26:12.829Z,14.60
2022-08-27T13:29:03.734Z,13.00
2022-08-27T13:31:53.089Z,11.10
2022-08-27T13:34:41.890Z,12.40
2022-08-27T13:37:44.702Z,14.30
2022-08-27T13:40:55.678Z,12.60
2022-08-27T13:43:46.935Z,12.10
2022-08-27T13:46:52.274Z,12.90
2022-08-27T13:49:40.486Z,12.10
2022-08-27T13:52:34.618Z,14.40
2022-08-27T13:55:22.281Z,14.20
2022-08-27T13:58:23.553Z,14.50
2022-08-27T14:01:16.546Z,14.20
2022-08-27T14:04:20.576Z,10.70
2022-08-27T14:07:19.289Z,15.40
2022-08-27T14:10:26.457Z,13.70
2022-08-27T14:13:17.374Z,16.10
2022-08-27T14:16:25.933Z,12.40
2022-08-27T14:19:36.773Z,13.50
2022-08-27T14:22:25.200Z,16.10
2022-08-27T14:25:15.278Z,14.50
2022-08-27T14:28:04.465Z,14.60
2022-08-27T14:30:53.777Z,11.10
2022-08-27T14:33:42.007Z,13.00
2022-08-27T14:36:34.801Z,11.50
2022-08-27T14:39:27.006Z,11.10
2022-08-27T14:42:15.479Z,12.70
2022-08-27T14:45:04.894Z,10.40
2022-08-27T14:47:53.375Z,11.00
2022-08-27T14:50:49.274Z,10.40
2022-08-27T14:53:37.145Z,12.90
2022-08-27T14:56:26.463Z,13.40
2022-08-27T14:59:14.584Z,11.00
2022-08-27T15:02:07.152Z,12.30
2022-08-27T15:04:55.479Z,15.90
2022-08-27T15:07:47.124Z,15.20
2022-08-27T15:10:35.522Z,12.50
2022-08-27T15:13:23.906Z,11.40
2022-08-27T15:16:16.554Z,12.40
2022-08-27T15:19:07.466Z,14.90
2022-08-27T15:22:17.879Z,15.80
2022-08-27T15:25:08.316Z,13.40
2022-08-27T15:27:55.892Z,14.10
2022-08-27T15:30:44.032Z,14.00
2022-08-27T15:33:32.467Z,14.70
2022-08-27T15:36:20.387Z,14.40
2022-08-27T15:39:09.275Z,15.90
2022-08-27T15:42:06.426Z,14.00
2022-08-27T15:44:57.564Z,12.70
2022-08-27T15:47:45.645Z,10.50
2022-08-27T15:50:34.717Z,12.80
2022-08-27T15:53:25.768Z,12.00
2022-08-27T15:56:13.814Z,13.90
2022-08-27T15:59:02.155Z,14.30
2022-08-27T16:01:50.176Z,11.90
2022-08-27T16:04:38.091Z,12.80
2022-08-27T16:07:26.806Z,13.10
2022-08-27T16:10:15.834Z,12.80
2022-08-27T16:13:03.952Z,15.50
2022-08-27T16:15:53.035Z,13.40
2022-08-27T16:18:42.867Z,18.50
2022-08-27T16:21:31.185Z,13.90
2022-08-27T16:24:21.584Z,15.60
2022-08-27T16:27:09.608Z,12.80
2022-08-27T16:29:57.573Z,12.60
2022-08-27T16:32:48.630Z,13.80
2022-08-27T16:35:37.615Z,12.70
2022-08-27T16:38:25.276Z,13.30
2022-08-27T16:41:14.235Z,14.40
2022-08-27T16:44:02.465Z,15.30
2022-08-27T16:46:50.228Z,16.60
2022-08-27T16:49:56.831Z,13.70
2022-08-27T16:52:44.738Z,15.40
2022-08-27T16:55:37.731Z,12.50
2022-08-27T16:58:29.402Z,16.80
2022-08-27T17:01:21.526Z,15.60
2022-08-27T17:04:16.388Z,14.20
2022-08-27T17:07:09.491Z,15.50
2022-08-27T17:10:00.481Z,17.60
2022-08-27T17:12:52.247Z,17.00
2022-08-27T17:15:40.360Z,14.10
2022-08-27T17:18:29.792Z,15.50
2022-08-27T17:21:20.782Z,15.70
2022-08-27T17:24:10.933Z,17.40
2022-08-27T17:27:00.371Z,27.50
2022-08-27T17:29:48.381Z,24.90
2022-08-27T17:32:42.244Z,26.60
2022-08-27T17:35:30.039Z,19.10
2022-08-27T17:38:18.209Z,15.10
2022-08-27T17:41:33.457Z,14.80
2022-08-27T17:44:32.316Z,21.50
2022-08-27T17:47:20.965Z,24.00
2022-08-27T17:50:09.538Z,17.60
2022-08-27T17:52:58.887Z,16.30
2022-08-27T17:55:46.575Z,20.80
2022-08-27T17:58:34.651Z,15.10
2022-08-27T18:01:31.444Z,13.60
2022-08-27T18:04:20.862Z,14.60
2022-08-27T18:07:08.432Z,15.50
2022-08-27T18:09:59.727Z,15.00
2022-08-27T18:12:47.847Z,16.10
2022-08-27T18:15:40.683Z,17.70
2022-08-27T18:18:29.121Z,19.50
2022-08-27T18:21:25.147Z,22.00
2022-08-27T18:24:14.414Z,24.60
2022-08-27T18:27:02.032Z,23.00
2022-08-27T18:29:50.199Z,21.80
2022-08-27T18:32:44.336Z,21.50
2022-08-27T18:35:34.488Z,20.40
2022-08-27T18:38:22.289Z,18.10
2022-08-27T18:41:10.413Z,18.40
2022-08-27T18:44:00.205Z,20.50
2022-08-27T18:46:48.338Z,18.20
2022-08-27T18:49:36.712Z,19.50
2022-08-27T18:52:24.978Z,20.70
2022-08-27T18:55:16.784Z,17.90
2022-08-27T18:58:04.681Z,21.10
2022-08-27T19:00:57.390Z,18.80
2022-08-27T19:03:52.201Z,22.80
2022-08-27T19:06:40.239Z,19.10
2022-08-27T19:09:28.458Z,17.10
2022-08-27T19:12:17.713Z,20.70
2022-08-27T19:15:07.078Z,17.80
2022-08-27T19:17:57.237Z,19.50
2022-08-27T19:20:45.360Z,18.20
2022-08-27T19:23:54.248Z,18.60
2022-08-27T19:26:43.596Z,20.90
2022-08-27T19:29:31.072Z,16.80
2022-08-27T19:32:19.024Z,18.30
2022-08-27T19:35:07.420Z,16.10
2022-08-27T19:37:55.227Z,17.80
2022-08-27T19:40:43.696Z,24.60
2022-08-27T19:43:32.130Z,19.00
2022-08-27T19:46:24.269Z,19.30
2022-08-27T19:49:12.124Z,18.60
2022-08-27T19:52:00.645Z,17.90
2022-08-27T19:55:12.713Z,19.50
2022-08-27T19:58:00.634Z,24.20
2022-08-27T20:00:49.417Z,19.40
2022-08-27T20:03:37.870Z,20.70
2022-08-27T20:06:26.777Z,19.10
2022-08-27T20:09:16.112Z,21.80
2022-08-27T20:12:05.723Z,21.40
2022-08-27T20:14:53.747Z,22.00
2022-08-27T20:17:45.321Z,25.20
2022-08-27T20:20:34.958Z,25.30
2022-08-27T20:23:23.235Z,29.10
2022-08-27T20:26:12.891Z,26.20
2022-08-27T20:29:01.956Z,28.70
2022-08-27T20:31:50.263Z,31.70
2022-08-27T20:34:38.505Z,29.20
2022-08-27T20:37:26.730Z,29.80
2022-08-27T20:40:26.170Z,27.80
2022-08-27T20:43:14.754Z,28.80
2022-08-27T20:46:03.548Z,28.00
2022-08-27T20:48:52.129Z,27.40
2022-08-27T20:51:51.242Z,31.50
2022-08-27T20:54:47.837Z,27.20
2022-08-27T20:57:36.131Z,31.90
2022-08-27T21:00:25.033Z,30.80
2022-08-27T21:03:14.818Z,29.60
2022-08-27T21:06:02.915Z,27.90
2022-08-27T21:08:50.941Z,30.50
2022-08-27T21:11:38.962Z,29.30
2022-08-27T21:14:27.863Z,25.50
2022-08-27T21:17:15.837Z,29.50
2022-08-27T21:20:11.149Z,24.90
2022-08-27T21:23:00.030Z,29.40
2022-08-27T21:25:47.717Z,29.10
2022-08-27T21:28:38.656Z,28.90
2022-08-27T21:31:26.622Z,30.90
2022-08-27T21:34:14.687Z,28.30
2022-08-27T21:37:02.441Z,27.70
2022-08-27T21:39:50.418Z,25.30
2022-08-27T21:42:38.308Z,27.80
2022-08-27T21:45:26.531Z,24.70
2022-08-27T21:48:14.491Z,28.10
2022-08-27T21:51:11.023Z,25.40
2022-08-27T21:54:00.608Z,27.80
2022-08-27T21:56:48.234Z,26.20
2022-08-27T21:59:45.568Z,23.90
2022-08-27T22:02:40.113Z,27.80
2022-08-27T22:05:28.915Z,27.20
2022-08-27T22:08:20.655Z,26.90
2022-08-27T22:11:09.678Z,25.10
2022-08-27T22:13:59.023Z,28.10
2022-08-27T22:16:46.825Z,25.00
2022-08-27T22:19:34.579Z,24.00
2022-08-27T22:22:22.498Z,24.10
2022-08-27T22:25:10.610Z,24.00
2022-08-27T22:27:58.596Z,25.20
2022-08-27T22:30:46.830Z,27.00
2022-08-27T22:33:34.477Z,26.00
2022-08-27T22:36:22.960Z,23.50
2022-08-27T22:39:11.108Z,23.50
2022-08-27T22:42:00.363Z,27.60
2022-08-27T22:44:48.122Z,22.50
2022-08-27T22:47:36.706Z,24.00
2022-08-27T22:50:25.584Z,24.90
2022-08-27T22:53:13.455Z,25.70
2022-08-27T22:56:01.186Z,25.30
2022-08-27T22:58:49.066Z,23.50
2022-08-27T23:01:37.646Z,21.40
2022-08-27T23:04:44.794Z,20.60
2022-08-27T23:07:33.946Z,21.30
2022-08-27T23:10:24.501Z,21.20
2022-08-27T23:13:13.365Z,22.10
2022-08-27T23:16:03.289Z,20.80
2022-08-27T23:18:51.424Z,23.10
2022-08-27T23:21:39.524Z,19.70
2022-08-27T23:24:27.685Z,20.80
2022-08-27T23:27:30.704Z,19.60
2022-08-27T23:30:19.053Z,21.60
2022-08-27T23:33:07.065Z,18.60
2022-08-27T23:35:55.107Z,19.10
2022-08-27T23:38:43.222Z,17.00
2022-08-27T23:41:31.125Z,17.20
2022-08-27T23:44:19.052Z,24.20
2022-08-27T23:47:06.853Z,18.20
2022-08-27T23:49:54.821Z,19.10
2022-08-27T23:52:42.853Z,17.00
2022-08-27T23:55:31.135Z,18.80
2022-08-27T23:58:18.788Z,21.30
